<?xml version="1.0" encoding="UTF-8" standalone="no" ?>
<gpx xmlns="http://www.topografix.com/GPX/1/1" xmlns:xsi="http://www.w3.org/2001/XMLSchema-instance" xsi:schemaLocation="http://www.topografix.com/GPX/1/1 http://www.topografix.com/GPX/1/1/gpx.xsd" version="1.1" creator="VisuGPX - https://www.visugpx.com">
  <metadata>
    <name>8444776-Rallye Castelpontin 2018-19 PETIT PARCOURS</name>
    <desc><![CDATA[
]]></desc>
  </metadata>
  <trk>
    <name><![CDATA[8444776-Rallye Castelpontin 2018-19 PETIT PARCOURS]]></name>
    <trkseg>
      <trkpt lat="45.79696" lon="3.24858">
        <ele>343</ele>
        <time>2020-02-08T18:24:32Z</time>
      </trkpt>
      <trkpt lat="45.79728" lon="3.2484">
        <ele>350</ele>
        <time>2020-02-08T18:24:40Z</time>
      </trkpt>
      <trkpt lat="45.79732" lon="3.24842">
        <ele>351</ele>
        <time>2020-02-08T18:24:41Z</time>
      </trkpt>
      <trkpt lat="45.79725" lon="3.24891">
        <ele>347</ele>
        <time>2020-02-08T18:24:49Z</time>
      </trkpt>
      <trkpt lat="45.79725" lon="3.24905">
        <ele>346</ele>
        <time>2020-02-08T18:24:51Z</time>
      </trkpt>
      <trkpt lat="45.79731" lon="3.24937">
        <ele>345</ele>
        <time>2020-02-08T18:24:57Z</time>
      </trkpt>
      <trkpt lat="45.79736" lon="3.24948">
        <ele>346</ele>
        <time>2020-02-08T18:24:59Z</time>
      </trkpt>
      <trkpt lat="45.79744" lon="3.2496">
        <ele>347</ele>
        <time>2020-02-08T18:25:02Z</time>
      </trkpt>
      <trkpt lat="45.79758" lon="3.24972">
        <ele>348</ele>
        <time>2020-02-08T18:25:05Z</time>
      </trkpt>
      <trkpt lat="45.79782" lon="3.24979">
        <ele>350</ele>
        <time>2020-02-08T18:25:11Z</time>
      </trkpt>
      <trkpt lat="45.79795" lon="3.2498">
        <ele>351</ele>
        <time>2020-02-08T18:25:14Z</time>
      </trkpt>
      <trkpt lat="45.79793" lon="3.24997">
        <ele>350</ele>
        <time>2020-02-08T18:25:17Z</time>
      </trkpt>
      <trkpt lat="45.7977" lon="3.25014">
        <ele>346</ele>
        <time>2020-02-08T18:25:23Z</time>
      </trkpt>
      <trkpt lat="45.79735" lon="3.25052">
        <ele>337</ele>
        <time>2020-02-08T18:25:33Z</time>
      </trkpt>
      <trkpt lat="45.79736" lon="3.25232">
        <ele>323</ele>
        <time>2020-02-08T18:26:03Z</time>
      </trkpt>
      <trkpt lat="45.79731" lon="3.25227">
        <ele>323</ele>
        <time>2020-02-08T18:26:04Z</time>
      </trkpt>
      <trkpt lat="45.79728" lon="3.25218">
        <ele>323</ele>
        <time>2020-02-08T18:26:06Z</time>
      </trkpt>
      <trkpt lat="45.79709" lon="3.25147">
        <ele>324</ele>
        <time>2020-02-08T18:26:18Z</time>
      </trkpt>
      <trkpt lat="45.7964" lon="3.24927">
        <ele>324</ele>
        <time>2020-02-08T18:26:57Z</time>
      </trkpt>
      <trkpt lat="45.79633" lon="3.249">
        <ele>324</ele>
        <time>2020-02-08T18:27:02Z</time>
      </trkpt>
      <trkpt lat="45.79624" lon="3.24846">
        <ele>325</ele>
        <time>2020-02-08T18:27:11Z</time>
      </trkpt>
      <trkpt lat="45.79603" lon="3.24779">
        <ele>322</ele>
        <time>2020-02-08T18:27:23Z</time>
      </trkpt>
      <trkpt lat="45.79541" lon="3.24681">
        <ele>321</ele>
        <time>2020-02-08T18:27:45Z</time>
      </trkpt>
      <trkpt lat="45.79372" lon="3.24915">
        <ele>310</ele>
        <time>2020-02-08T18:28:39Z</time>
      </trkpt>
      <trkpt lat="45.79364" lon="3.2492">
        <ele>310</ele>
        <time>2020-02-08T18:28:41Z</time>
      </trkpt>
      <trkpt lat="45.79355" lon="3.24922">
        <ele>311</ele>
        <time>2020-02-08T18:28:44Z</time>
      </trkpt>
      <trkpt lat="45.7928" lon="3.24883">
        <ele>312</ele>
        <time>2020-02-08T18:29:02Z</time>
      </trkpt>
      <trkpt lat="45.79273" lon="3.24868">
        <ele>312</ele>
        <time>2020-02-08T18:29:05Z</time>
      </trkpt>
      <trkpt lat="45.79242" lon="3.24828">
        <ele>312</ele>
        <time>2020-02-08T18:29:15Z</time>
      </trkpt>
      <trkpt lat="45.79172" lon="3.24716">
        <ele>312</ele>
        <time>2020-02-08T18:29:39Z</time>
      </trkpt>
      <trkpt lat="45.79158" lon="3.24706">
        <ele>312</ele>
        <time>2020-02-08T18:29:43Z</time>
      </trkpt>
      <trkpt lat="45.79101" lon="3.24614">
        <ele>312</ele>
        <time>2020-02-08T18:30:03Z</time>
      </trkpt>
      <trkpt lat="45.79095" lon="3.24572">
        <ele>312</ele>
        <time>2020-02-08T18:30:10Z</time>
      </trkpt>
      <trkpt lat="45.79088" lon="3.24561">
        <ele>311</ele>
        <time>2020-02-08T18:30:13Z</time>
      </trkpt>
      <trkpt lat="45.79067" lon="3.24532">
        <ele>311</ele>
        <time>2020-02-08T18:30:19Z</time>
      </trkpt>
      <trkpt lat="45.7904" lon="3.2451">
        <ele>311</ele>
        <time>2020-02-08T18:30:27Z</time>
      </trkpt>
      <trkpt lat="45.7903" lon="3.24489">
        <ele>311</ele>
        <time>2020-02-08T18:30:31Z</time>
      </trkpt>
      <trkpt lat="45.79018" lon="3.24473">
        <ele>311</ele>
        <time>2020-02-08T18:30:35Z</time>
      </trkpt>
      <trkpt lat="45.79004" lon="3.24465">
        <ele>311</ele>
        <time>2020-02-08T18:30:38Z</time>
      </trkpt>
      <trkpt lat="45.78965" lon="3.24461">
        <ele>312</ele>
        <time>2020-02-08T18:30:47Z</time>
      </trkpt>
      <trkpt lat="45.7888" lon="3.24431">
        <ele>313</ele>
        <time>2020-02-08T18:31:08Z</time>
      </trkpt>
      <trkpt lat="45.78811" lon="3.24412">
        <ele>313</ele>
        <time>2020-02-08T18:31:24Z</time>
      </trkpt>
      <trkpt lat="45.78803" lon="3.24403">
        <ele>313</ele>
        <time>2020-02-08T18:31:26Z</time>
      </trkpt>
      <trkpt lat="45.78787" lon="3.244">
        <ele>313</ele>
        <time>2020-02-08T18:31:30Z</time>
      </trkpt>
      <trkpt lat="45.78722" lon="3.24371">
        <ele>313</ele>
        <time>2020-02-08T18:31:46Z</time>
      </trkpt>
      <trkpt lat="45.78716" lon="3.2437">
        <ele>313</ele>
        <time>2020-02-08T18:31:47Z</time>
      </trkpt>
      <trkpt lat="45.78704" lon="3.24375">
        <ele>314</ele>
        <time>2020-02-08T18:31:50Z</time>
      </trkpt>
      <trkpt lat="45.7868" lon="3.24373">
        <ele>315</ele>
        <time>2020-02-08T18:31:56Z</time>
      </trkpt>
      <trkpt lat="45.78672" lon="3.24378">
        <ele>315</ele>
        <time>2020-02-08T18:31:58Z</time>
      </trkpt>
      <trkpt lat="45.78654" lon="3.24415">
        <ele>316</ele>
        <time>2020-02-08T18:32:05Z</time>
      </trkpt>
      <trkpt lat="45.78649" lon="3.24427">
        <ele>317</ele>
        <time>2020-02-08T18:32:08Z</time>
      </trkpt>
      <trkpt lat="45.78648" lon="3.24449">
        <ele>319</ele>
        <time>2020-02-08T18:32:11Z</time>
      </trkpt>
      <trkpt lat="45.78673" lon="3.24476">
        <ele>322</ele>
        <time>2020-02-08T18:32:19Z</time>
      </trkpt>
      <trkpt lat="45.78707" lon="3.24499">
        <ele>323</ele>
        <time>2020-02-08T18:32:27Z</time>
      </trkpt>
      <trkpt lat="45.78725" lon="3.2452">
        <ele>324</ele>
        <time>2020-02-08T18:32:33Z</time>
      </trkpt>
      <trkpt lat="45.78731" lon="3.24552">
        <ele>328</ele>
        <time>2020-02-08T18:32:38Z</time>
      </trkpt>
      <trkpt lat="45.7873" lon="3.24556">
        <ele>328</ele>
        <time>2020-02-08T18:32:39Z</time>
      </trkpt>
      <trkpt lat="45.78724" lon="3.24555">
        <ele>328</ele>
        <time>2020-02-08T18:32:40Z</time>
      </trkpt>
      <trkpt lat="45.78716" lon="3.24543">
        <ele>327</ele>
        <time>2020-02-08T18:32:43Z</time>
      </trkpt>
      <trkpt lat="45.78702" lon="3.24534">
        <ele>327</ele>
        <time>2020-02-08T18:32:47Z</time>
      </trkpt>
      <trkpt lat="45.78663" lon="3.24527">
        <ele>327</ele>
        <time>2020-02-08T18:32:56Z</time>
      </trkpt>
      <trkpt lat="45.78632" lon="3.24528">
        <ele>327</ele>
        <time>2020-02-08T18:33:03Z</time>
      </trkpt>
      <trkpt lat="45.78533" lon="3.24521">
        <ele>328</ele>
        <time>2020-02-08T18:33:26Z</time>
      </trkpt>
      <trkpt lat="45.78463" lon="3.24526">
        <ele>327</ele>
        <time>2020-02-08T18:33:43Z</time>
      </trkpt>
      <trkpt lat="45.78392" lon="3.24543">
        <ele>325</ele>
        <time>2020-02-08T18:33:59Z</time>
      </trkpt>
      <trkpt lat="45.78377" lon="3.24549">
        <ele>324</ele>
        <time>2020-02-08T18:34:03Z</time>
      </trkpt>
      <trkpt lat="45.78339" lon="3.24578">
        <ele>323</ele>
        <time>2020-02-08T18:34:13Z</time>
      </trkpt>
      <trkpt lat="45.78311" lon="3.2461">
        <ele>322</ele>
        <time>2020-02-08T18:34:21Z</time>
      </trkpt>
      <trkpt lat="45.78244" lon="3.24701">
        <ele>320</ele>
        <time>2020-02-08T18:34:43Z</time>
      </trkpt>
      <trkpt lat="45.78226" lon="3.24719">
        <ele>321</ele>
        <time>2020-02-08T18:34:48Z</time>
      </trkpt>
      <trkpt lat="45.78139" lon="3.24787">
        <ele>323</ele>
        <time>2020-02-08T18:35:11Z</time>
      </trkpt>
      <trkpt lat="45.78135" lon="3.24795">
        <ele>324</ele>
        <time>2020-02-08T18:35:13Z</time>
      </trkpt>
      <trkpt lat="45.78137" lon="3.24814">
        <ele>326</ele>
        <time>2020-02-08T18:35:16Z</time>
      </trkpt>
      <trkpt lat="45.78046" lon="3.24862">
        <ele>330</ele>
        <time>2020-02-08T18:35:39Z</time>
      </trkpt>
      <trkpt lat="45.78012" lon="3.24875">
        <ele>332</ele>
        <time>2020-02-08T18:35:47Z</time>
      </trkpt>
      <trkpt lat="45.77978" lon="3.24878">
        <ele>334</ele>
        <time>2020-02-08T18:35:55Z</time>
      </trkpt>
      <trkpt lat="45.77958" lon="3.24876">
        <ele>335</ele>
        <time>2020-02-08T18:35:59Z</time>
      </trkpt>
      <trkpt lat="45.77929" lon="3.24866">
        <ele>336</ele>
        <time>2020-02-08T18:36:06Z</time>
      </trkpt>
      <trkpt lat="45.77918" lon="3.24858">
        <ele>337</ele>
        <time>2020-02-08T18:36:09Z</time>
      </trkpt>
      <trkpt lat="45.77902" lon="3.24851">
        <ele>338</ele>
        <time>2020-02-08T18:36:13Z</time>
      </trkpt>
      <trkpt lat="45.77899" lon="3.24862">
        <ele>338</ele>
        <time>2020-02-08T18:36:15Z</time>
      </trkpt>
      <trkpt lat="45.77899" lon="3.24881">
        <ele>339</ele>
        <time>2020-02-08T18:36:18Z</time>
      </trkpt>
      <trkpt lat="45.77908" lon="3.24941">
        <ele>340</ele>
        <time>2020-02-08T18:36:28Z</time>
      </trkpt>
      <trkpt lat="45.77908" lon="3.24963">
        <ele>341</ele>
        <time>2020-02-08T18:36:32Z</time>
      </trkpt>
      <trkpt lat="45.7789" lon="3.2514">
        <ele>347</ele>
        <time>2020-02-08T18:37:01Z</time>
      </trkpt>
      <trkpt lat="45.77895" lon="3.25257">
        <ele>351</ele>
        <time>2020-02-08T18:37:20Z</time>
      </trkpt>
      <trkpt lat="45.7791" lon="3.25359">
        <ele>352</ele>
        <time>2020-02-08T18:37:37Z</time>
      </trkpt>
      <trkpt lat="45.7791" lon="3.25379">
        <ele>353</ele>
        <time>2020-02-08T18:37:40Z</time>
      </trkpt>
      <trkpt lat="45.77917" lon="3.25446">
        <ele>354</ele>
        <time>2020-02-08T18:37:51Z</time>
      </trkpt>
      <trkpt lat="45.77922" lon="3.25468">
        <ele>355</ele>
        <time>2020-02-08T18:37:55Z</time>
      </trkpt>
      <trkpt lat="45.77929" lon="3.25493">
        <ele>356</ele>
        <time>2020-02-08T18:37:59Z</time>
      </trkpt>
      <trkpt lat="45.77981" lon="3.25602">
        <ele>354</ele>
        <time>2020-02-08T18:38:21Z</time>
      </trkpt>
      <trkpt lat="45.77977" lon="3.25611">
        <ele>354</ele>
        <time>2020-02-08T18:38:23Z</time>
      </trkpt>
      <trkpt lat="45.7792" lon="3.25657">
        <ele>360</ele>
        <time>2020-02-08T18:38:38Z</time>
      </trkpt>
      <trkpt lat="45.77888" lon="3.25687">
        <ele>363</ele>
        <time>2020-02-08T18:38:47Z</time>
      </trkpt>
      <trkpt lat="45.77837" lon="3.25748">
        <ele>367</ele>
        <time>2020-02-08T18:39:02Z</time>
      </trkpt>
      <trkpt lat="45.77736" lon="3.25918">
        <ele>384</ele>
        <time>2020-02-08T18:39:39Z</time>
      </trkpt>
      <trkpt lat="45.77704" lon="3.2595">
        <ele>387</ele>
        <time>2020-02-08T18:39:48Z</time>
      </trkpt>
      <trkpt lat="45.77681" lon="3.25961">
        <ele>389</ele>
        <time>2020-02-08T18:39:54Z</time>
      </trkpt>
      <trkpt lat="45.77629" lon="3.25974">
        <ele>395</ele>
        <time>2020-02-08T18:40:06Z</time>
      </trkpt>
      <trkpt lat="45.77597" lon="3.25979">
        <ele>399</ele>
        <time>2020-02-08T18:40:13Z</time>
      </trkpt>
      <trkpt lat="45.7752" lon="3.25966">
        <ele>408</ele>
        <time>2020-02-08T18:40:31Z</time>
      </trkpt>
      <trkpt lat="45.77489" lon="3.25965">
        <ele>412</ele>
        <time>2020-02-08T18:40:39Z</time>
      </trkpt>
      <trkpt lat="45.77466" lon="3.25985">
        <ele>416</ele>
        <time>2020-02-08T18:40:45Z</time>
      </trkpt>
      <trkpt lat="45.7746" lon="3.25997">
        <ele>416</ele>
        <time>2020-02-08T18:40:47Z</time>
      </trkpt>
      <trkpt lat="45.77448" lon="3.26007">
        <ele>418</ele>
        <time>2020-02-08T18:40:51Z</time>
      </trkpt>
      <trkpt lat="45.77427" lon="3.26032">
        <ele>422</ele>
        <time>2020-02-08T18:40:57Z</time>
      </trkpt>
      <trkpt lat="45.77396" lon="3.26051">
        <ele>427</ele>
        <time>2020-02-08T18:41:05Z</time>
      </trkpt>
      <trkpt lat="45.77383" lon="3.26052">
        <ele>428</ele>
        <time>2020-02-08T18:41:08Z</time>
      </trkpt>
      <trkpt lat="45.77373" lon="3.26059">
        <ele>430</ele>
        <time>2020-02-08T18:41:11Z</time>
      </trkpt>
      <trkpt lat="45.77358" lon="3.26073">
        <ele>431</ele>
        <time>2020-02-08T18:41:15Z</time>
      </trkpt>
      <trkpt lat="45.7729" lon="3.26159">
        <ele>444</ele>
        <time>2020-02-08T18:41:36Z</time>
      </trkpt>
      <trkpt lat="45.77137" lon="3.26334">
        <ele>459</ele>
        <time>2020-02-08T18:42:22Z</time>
      </trkpt>
      <trkpt lat="45.77073" lon="3.26381">
        <ele>464</ele>
        <time>2020-02-08T18:42:38Z</time>
      </trkpt>
      <trkpt lat="45.77017" lon="3.26401">
        <ele>470</ele>
        <time>2020-02-08T18:42:52Z</time>
      </trkpt>
      <trkpt lat="45.77001" lon="3.26491">
        <ele>469</ele>
        <time>2020-02-08T18:43:07Z</time>
      </trkpt>
      <trkpt lat="45.76986" lon="3.26546">
        <ele>471</ele>
        <time>2020-02-08T18:43:17Z</time>
      </trkpt>
      <trkpt lat="45.76949" lon="3.26624">
        <ele>471</ele>
        <time>2020-02-08T18:43:32Z</time>
      </trkpt>
      <trkpt lat="45.76888" lon="3.26499">
        <ele>485</ele>
        <time>2020-02-08T18:43:57Z</time>
      </trkpt>
      <trkpt lat="45.76864" lon="3.26484">
        <ele>488</ele>
        <time>2020-02-08T18:44:03Z</time>
      </trkpt>
      <trkpt lat="45.76836" lon="3.26433">
        <ele>494</ele>
        <time>2020-02-08T18:44:14Z</time>
      </trkpt>
      <trkpt lat="45.76833" lon="3.26429">
        <ele>494</ele>
        <time>2020-02-08T18:44:14Z</time>
      </trkpt>
      <trkpt lat="45.76825" lon="3.26428">
        <ele>495</ele>
        <time>2020-02-08T18:44:16Z</time>
      </trkpt>
      <trkpt lat="45.76821" lon="3.26429">
        <ele>496</ele>
        <time>2020-02-08T18:44:17Z</time>
      </trkpt>
      <trkpt lat="45.76788" lon="3.26464">
        <ele>498</ele>
        <time>2020-02-08T18:44:27Z</time>
      </trkpt>
      <trkpt lat="45.76663" lon="3.26583">
        <ele>503</ele>
        <time>2020-02-08T18:45:02Z</time>
      </trkpt>
      <trkpt lat="45.76588" lon="3.26664">
        <ele>502</ele>
        <time>2020-02-08T18:45:24Z</time>
      </trkpt>
      <trkpt lat="45.76576" lon="3.26675">
        <ele>502</ele>
        <time>2020-02-08T18:45:27Z</time>
      </trkpt>
      <trkpt lat="45.76559" lon="3.26685">
        <ele>501</ele>
        <time>2020-02-08T18:45:31Z</time>
      </trkpt>
      <trkpt lat="45.76511" lon="3.26689">
        <ele>503</ele>
        <time>2020-02-08T18:45:43Z</time>
      </trkpt>
      <trkpt lat="45.76439" lon="3.26704">
        <ele>499</ele>
        <time>2020-02-08T18:46:00Z</time>
      </trkpt>
      <trkpt lat="45.76419" lon="3.26705">
        <ele>499</ele>
        <time>2020-02-08T18:46:04Z</time>
      </trkpt>
      <trkpt lat="45.76348" lon="3.26676">
        <ele>500</ele>
        <time>2020-02-08T18:46:22Z</time>
      </trkpt>
      <trkpt lat="45.76327" lon="3.2667">
        <ele>500</ele>
        <time>2020-02-08T18:46:27Z</time>
      </trkpt>
      <trkpt lat="45.76255" lon="3.26662">
        <ele>501</ele>
        <time>2020-02-08T18:46:43Z</time>
      </trkpt>
      <trkpt lat="45.76216" lon="3.2666">
        <ele>498</ele>
        <time>2020-02-08T18:46:53Z</time>
      </trkpt>
      <trkpt lat="45.76168" lon="3.2664">
        <ele>497</ele>
        <time>2020-02-08T18:47:04Z</time>
      </trkpt>
      <trkpt lat="45.76141" lon="3.26622">
        <ele>498</ele>
        <time>2020-02-08T18:47:11Z</time>
      </trkpt>
      <trkpt lat="45.76087" lon="3.26613">
        <ele>495</ele>
        <time>2020-02-08T18:47:24Z</time>
      </trkpt>
      <trkpt lat="45.7602" lon="3.26608">
        <ele>496</ele>
        <time>2020-02-08T18:47:40Z</time>
      </trkpt>
      <trkpt lat="45.75904" lon="3.26645">
        <ele>495</ele>
        <time>2020-02-08T18:48:07Z</time>
      </trkpt>
      <trkpt lat="45.75883" lon="3.26716">
        <ele>492</ele>
        <time>2020-02-08T18:48:20Z</time>
      </trkpt>
      <trkpt lat="45.7578" lon="3.26939">
        <ele>479</ele>
        <time>2020-02-08T18:49:03Z</time>
      </trkpt>
      <trkpt lat="45.75765" lon="3.26996">
        <ele>471</ele>
        <time>2020-02-08T18:49:13Z</time>
      </trkpt>
      <trkpt lat="45.75752" lon="3.27026">
        <ele>469</ele>
        <time>2020-02-08T18:49:19Z</time>
      </trkpt>
      <trkpt lat="45.75729" lon="3.27044">
        <ele>466</ele>
        <time>2020-02-08T18:49:25Z</time>
      </trkpt>
      <trkpt lat="45.75715" lon="3.27052">
        <ele>464</ele>
        <time>2020-02-08T18:49:29Z</time>
      </trkpt>
      <trkpt lat="45.75616" lon="3.27308">
        <ele>426</ele>
        <time>2020-02-08T18:50:16Z</time>
      </trkpt>
      <trkpt lat="45.75588" lon="3.27366">
        <ele>420</ele>
        <time>2020-02-08T18:50:28Z</time>
      </trkpt>
      <trkpt lat="45.75552" lon="3.27426">
        <ele>415</ele>
        <time>2020-02-08T18:50:41Z</time>
      </trkpt>
      <trkpt lat="45.75525" lon="3.27452">
        <ele>412</ele>
        <time>2020-02-08T18:50:48Z</time>
      </trkpt>
      <trkpt lat="45.75501" lon="3.27461">
        <ele>411</ele>
        <time>2020-02-08T18:50:54Z</time>
      </trkpt>
      <trkpt lat="45.75484" lon="3.27472">
        <ele>409</ele>
        <time>2020-02-08T18:50:59Z</time>
      </trkpt>
      <trkpt lat="45.75442" lon="3.27454">
        <ele>409</ele>
        <time>2020-02-08T18:51:09Z</time>
      </trkpt>
      <trkpt lat="45.75398" lon="3.27449">
        <ele>409</ele>
        <time>2020-02-08T18:51:19Z</time>
      </trkpt>
      <trkpt lat="45.75387" lon="3.27442">
        <ele>409</ele>
        <time>2020-02-08T18:51:22Z</time>
      </trkpt>
      <trkpt lat="45.75339" lon="3.27401">
        <ele>413</ele>
        <time>2020-02-08T18:51:35Z</time>
      </trkpt>
      <trkpt lat="45.75283" lon="3.27323">
        <ele>422</ele>
        <time>2020-02-08T18:51:53Z</time>
      </trkpt>
      <trkpt lat="45.75155" lon="3.27172">
        <ele>421</ele>
        <time>2020-02-08T18:52:32Z</time>
      </trkpt>
      <trkpt lat="45.75095" lon="3.27085">
        <ele>422</ele>
        <time>2020-02-08T18:52:52Z</time>
      </trkpt>
      <trkpt lat="45.75058" lon="3.27013">
        <ele>423</ele>
        <time>2020-02-08T18:53:06Z</time>
      </trkpt>
      <trkpt lat="45.74997" lon="3.26843">
        <ele>422</ele>
        <time>2020-02-08T18:53:38Z</time>
      </trkpt>
      <trkpt lat="45.74978" lon="3.26809">
        <ele>423</ele>
        <time>2020-02-08T18:53:45Z</time>
      </trkpt>
      <trkpt lat="45.74927" lon="3.2653">
        <ele>408</ele>
        <time>2020-02-08T18:54:32Z</time>
      </trkpt>
      <trkpt lat="45.74923" lon="3.26478">
        <ele>404</ele>
        <time>2020-02-08T18:54:40Z</time>
      </trkpt>
      <trkpt lat="45.74922" lon="3.26368">
        <ele>400</ele>
        <time>2020-02-08T18:54:58Z</time>
      </trkpt>
      <trkpt lat="45.74897" lon="3.26364">
        <ele>398</ele>
        <time>2020-02-08T18:55:04Z</time>
      </trkpt>
      <trkpt lat="45.7487" lon="3.26364">
        <ele>396</ele>
        <time>2020-02-08T18:55:10Z</time>
      </trkpt>
      <trkpt lat="45.74845" lon="3.26368">
        <ele>395</ele>
        <time>2020-02-08T18:55:16Z</time>
      </trkpt>
      <trkpt lat="45.74835" lon="3.26365">
        <ele>394</ele>
        <time>2020-02-08T18:55:19Z</time>
      </trkpt>
      <trkpt lat="45.74819" lon="3.26354">
        <ele>393</ele>
        <time>2020-02-08T18:55:23Z</time>
      </trkpt>
      <trkpt lat="45.74734" lon="3.26243">
        <ele>385</ele>
        <time>2020-02-08T18:55:50Z</time>
      </trkpt>
      <trkpt lat="45.74708" lon="3.26225">
        <ele>384</ele>
        <time>2020-02-08T18:55:56Z</time>
      </trkpt>
      <trkpt lat="45.74653" lon="3.26179">
        <ele>381</ele>
        <time>2020-02-08T18:56:11Z</time>
      </trkpt>
      <trkpt lat="45.74585" lon="3.26137">
        <ele>375</ele>
        <time>2020-02-08T18:56:29Z</time>
      </trkpt>
      <trkpt lat="45.74529" lon="3.26092">
        <ele>371</ele>
        <time>2020-02-08T18:56:44Z</time>
      </trkpt>
      <trkpt lat="45.74461" lon="3.26029">
        <ele>367</ele>
        <time>2020-02-08T18:57:02Z</time>
      </trkpt>
      <trkpt lat="45.7441" lon="3.25967">
        <ele>364</ele>
        <time>2020-02-08T18:57:18Z</time>
      </trkpt>
      <trkpt lat="45.7427" lon="3.25784">
        <ele>359</ele>
        <time>2020-02-08T18:58:02Z</time>
      </trkpt>
      <trkpt lat="45.74187" lon="3.25654">
        <ele>356</ele>
        <time>2020-02-08T18:58:31Z</time>
      </trkpt>
      <trkpt lat="45.74169" lon="3.25616">
        <ele>355</ele>
        <time>2020-02-08T18:58:38Z</time>
      </trkpt>
      <trkpt lat="45.74148" lon="3.25581">
        <ele>354</ele>
        <time>2020-02-08T18:58:46Z</time>
      </trkpt>
      <trkpt lat="45.7415" lon="3.25572">
        <ele>355</ele>
        <time>2020-02-08T18:58:48Z</time>
      </trkpt>
      <trkpt lat="45.74147" lon="3.25568">
        <ele>355</ele>
        <time>2020-02-08T18:58:49Z</time>
      </trkpt>
      <trkpt lat="45.74138" lon="3.25564">
        <ele>354</ele>
        <time>2020-02-08T18:58:51Z</time>
      </trkpt>
      <trkpt lat="45.74114" lon="3.25518">
        <ele>354</ele>
        <time>2020-02-08T18:59:00Z</time>
      </trkpt>
      <trkpt lat="45.74018" lon="3.25354">
        <ele>354</ele>
        <time>2020-02-08T18:59:35Z</time>
      </trkpt>
      <trkpt lat="45.74007" lon="3.2533">
        <ele>353</ele>
        <time>2020-02-08T18:59:40Z</time>
      </trkpt>
      <trkpt lat="45.73992" lon="3.25343">
        <ele>353</ele>
        <time>2020-02-08T18:59:44Z</time>
      </trkpt>
      <trkpt lat="45.73971" lon="3.25339">
        <ele>353</ele>
        <time>2020-02-08T18:59:49Z</time>
      </trkpt>
      <trkpt lat="45.7396" lon="3.25347">
        <ele>353</ele>
        <time>2020-02-08T18:59:52Z</time>
      </trkpt>
      <trkpt lat="45.73947" lon="3.25363">
        <ele>353</ele>
        <time>2020-02-08T18:59:56Z</time>
      </trkpt>
      <trkpt lat="45.73937" lon="3.25366">
        <ele>353</ele>
        <time>2020-02-08T18:59:58Z</time>
      </trkpt>
      <trkpt lat="45.7393" lon="3.25364">
        <ele>353</ele>
        <time>2020-02-08T19:00:00Z</time>
      </trkpt>
      <trkpt lat="45.73923" lon="3.25358">
        <ele>353</ele>
        <time>2020-02-08T19:00:02Z</time>
      </trkpt>
      <trkpt lat="45.73899" lon="3.25297">
        <ele>353</ele>
        <time>2020-02-08T19:00:13Z</time>
      </trkpt>
      <trkpt lat="45.73893" lon="3.25252">
        <ele>352</ele>
        <time>2020-02-08T19:00:20Z</time>
      </trkpt>
      <trkpt lat="45.73866" lon="3.25209">
        <ele>352</ele>
        <time>2020-02-08T19:00:30Z</time>
      </trkpt>
      <trkpt lat="45.73853" lon="3.25199">
        <ele>352</ele>
        <time>2020-02-08T19:00:33Z</time>
      </trkpt>
      <trkpt lat="45.7382" lon="3.25189">
        <ele>352</ele>
        <time>2020-02-08T19:00:41Z</time>
      </trkpt>
      <trkpt lat="45.73808" lon="3.25177">
        <ele>352</ele>
        <time>2020-02-08T19:00:45Z</time>
      </trkpt>
      <trkpt lat="45.73776" lon="3.25131">
        <ele>352</ele>
        <time>2020-02-08T19:00:55Z</time>
      </trkpt>
      <trkpt lat="45.73757" lon="3.25111">
        <ele>352</ele>
        <time>2020-02-08T19:01:01Z</time>
      </trkpt>
      <trkpt lat="45.73751" lon="3.251">
        <ele>352</ele>
        <time>2020-02-08T19:01:03Z</time>
      </trkpt>
      <trkpt lat="45.73744" lon="3.25048">
        <ele>352</ele>
        <time>2020-02-08T19:01:12Z</time>
      </trkpt>
      <trkpt lat="45.73749" lon="3.25022">
        <ele>351</ele>
        <time>2020-02-08T19:01:16Z</time>
      </trkpt>
      <trkpt lat="45.73778" lon="3.24966">
        <ele>350</ele>
        <time>2020-02-08T19:01:27Z</time>
      </trkpt>
      <trkpt lat="45.73799" lon="3.24936">
        <ele>350</ele>
        <time>2020-02-08T19:01:34Z</time>
      </trkpt>
      <trkpt lat="45.73824" lon="3.24906">
        <ele>350</ele>
        <time>2020-02-08T19:01:42Z</time>
      </trkpt>
      <trkpt lat="45.73847" lon="3.24891">
        <ele>349</ele>
        <time>2020-02-08T19:01:48Z</time>
      </trkpt>
      <trkpt lat="45.73856" lon="3.24881">
        <ele>348</ele>
        <time>2020-02-08T19:01:50Z</time>
      </trkpt>
      <trkpt lat="45.73828" lon="3.24837">
        <ele>347</ele>
        <time>2020-02-08T19:02:00Z</time>
      </trkpt>
      <trkpt lat="45.73915" lon="3.24708">
        <ele>345</ele>
        <time>2020-02-08T19:02:29Z</time>
      </trkpt>
      <trkpt lat="45.73955" lon="3.24684">
        <ele>344</ele>
        <time>2020-02-08T19:02:40Z</time>
      </trkpt>
      <trkpt lat="45.73994" lon="3.24648">
        <ele>343</ele>
        <time>2020-02-08T19:02:50Z</time>
      </trkpt>
      <trkpt lat="45.74016" lon="3.24625">
        <ele>344</ele>
        <time>2020-02-08T19:02:57Z</time>
      </trkpt>
      <trkpt lat="45.74042" lon="3.24586">
        <ele>345</ele>
        <time>2020-02-08T19:03:05Z</time>
      </trkpt>
      <trkpt lat="45.74092" lon="3.24532">
        <ele>345</ele>
        <time>2020-02-08T19:03:20Z</time>
      </trkpt>
      <trkpt lat="45.7415" lon="3.24485">
        <ele>343</ele>
        <time>2020-02-08T19:03:36Z</time>
      </trkpt>
      <trkpt lat="45.74206" lon="3.24434">
        <ele>342</ele>
        <time>2020-02-08T19:03:51Z</time>
      </trkpt>
      <trkpt lat="45.74303" lon="3.24365">
        <ele>341</ele>
        <time>2020-02-08T19:04:16Z</time>
      </trkpt>
      <trkpt lat="45.74331" lon="3.2436">
        <ele>340</ele>
        <time>2020-02-08T19:04:23Z</time>
      </trkpt>
      <trkpt lat="45.74344" lon="3.24366">
        <ele>341</ele>
        <time>2020-02-08T19:04:26Z</time>
      </trkpt>
      <trkpt lat="45.74367" lon="3.24367">
        <ele>341</ele>
        <time>2020-02-08T19:04:32Z</time>
      </trkpt>
      <trkpt lat="45.74487" lon="3.24336">
        <ele>341</ele>
        <time>2020-02-08T19:05:00Z</time>
      </trkpt>
      <trkpt lat="45.74531" lon="3.24316">
        <ele>340</ele>
        <time>2020-02-08T19:05:11Z</time>
      </trkpt>
      <trkpt lat="45.74549" lon="3.243">
        <ele>339</ele>
        <time>2020-02-08T19:05:16Z</time>
      </trkpt>
      <trkpt lat="45.74556" lon="3.24287">
        <ele>339</ele>
        <time>2020-02-08T19:05:18Z</time>
      </trkpt>
      <trkpt lat="45.74583" lon="3.24251">
        <ele>338</ele>
        <time>2020-02-08T19:05:27Z</time>
      </trkpt>
      <trkpt lat="45.7466" lon="3.24182">
        <ele>338</ele>
        <time>2020-02-08T19:05:48Z</time>
      </trkpt>
      <trkpt lat="45.74697" lon="3.24126">
        <ele>337</ele>
        <time>2020-02-08T19:06:01Z</time>
      </trkpt>
      <trkpt lat="45.74708" lon="3.24123">
        <ele>337</ele>
        <time>2020-02-08T19:06:03Z</time>
      </trkpt>
      <trkpt lat="45.7475" lon="3.24138">
        <ele>337</ele>
        <time>2020-02-08T19:06:14Z</time>
      </trkpt>
      <trkpt lat="45.7476" lon="3.24138">
        <ele>338</ele>
        <time>2020-02-08T19:06:16Z</time>
      </trkpt>
      <trkpt lat="45.74792" lon="3.24116">
        <ele>338</ele>
        <time>2020-02-08T19:06:24Z</time>
      </trkpt>
      <trkpt lat="45.74805" lon="3.24114">
        <ele>339</ele>
        <time>2020-02-08T19:06:27Z</time>
      </trkpt>
      <trkpt lat="45.74821" lon="3.24097">
        <ele>338</ele>
        <time>2020-02-08T19:06:32Z</time>
      </trkpt>
      <trkpt lat="45.74848" lon="3.24075">
        <ele>338</ele>
        <time>2020-02-08T19:06:39Z</time>
      </trkpt>
      <trkpt lat="45.74908" lon="3.24048">
        <ele>339</ele>
        <time>2020-02-08T19:06:54Z</time>
      </trkpt>
      <trkpt lat="45.74923" lon="3.24046">
        <ele>340</ele>
        <time>2020-02-08T19:06:57Z</time>
      </trkpt>
      <trkpt lat="45.74931" lon="3.24038">
        <ele>340</ele>
        <time>2020-02-08T19:07:00Z</time>
      </trkpt>
      <trkpt lat="45.74931" lon="3.24034">
        <ele>340</ele>
        <time>2020-02-08T19:07:00Z</time>
      </trkpt>
      <trkpt lat="45.74925" lon="3.24028">
        <ele>339</ele>
        <time>2020-02-08T19:07:02Z</time>
      </trkpt>
      <trkpt lat="45.74915" lon="3.24009">
        <ele>338</ele>
        <time>2020-02-08T19:07:06Z</time>
      </trkpt>
      <trkpt lat="45.74911" lon="3.23996">
        <ele>338</ele>
        <time>2020-02-08T19:07:08Z</time>
      </trkpt>
      <trkpt lat="45.74911" lon="3.23975">
        <ele>337</ele>
        <time>2020-02-08T19:07:12Z</time>
      </trkpt>
      <trkpt lat="45.74902" lon="3.23976">
        <ele>337</ele>
        <time>2020-02-08T19:07:14Z</time>
      </trkpt>
      <trkpt lat="45.749" lon="3.23947">
        <ele>336</ele>
        <time>2020-02-08T19:07:18Z</time>
      </trkpt>
      <trkpt lat="45.74922" lon="3.23901">
        <ele>336</ele>
        <time>2020-02-08T19:07:28Z</time>
      </trkpt>
      <trkpt lat="45.74945" lon="3.2382">
        <ele>336</ele>
        <time>2020-02-08T19:07:42Z</time>
      </trkpt>
      <trkpt lat="45.74957" lon="3.23672">
        <ele>334</ele>
        <time>2020-02-08T19:08:06Z</time>
      </trkpt>
      <trkpt lat="45.74966" lon="3.23595">
        <ele>334</ele>
        <time>2020-02-08T19:08:19Z</time>
      </trkpt>
      <trkpt lat="45.74973" lon="3.23555">
        <ele>333</ele>
        <time>2020-02-08T19:08:26Z</time>
      </trkpt>
      <trkpt lat="45.74986" lon="3.23491">
        <ele>331</ele>
        <time>2020-02-08T19:08:36Z</time>
      </trkpt>
      <trkpt lat="45.75009" lon="3.23435">
        <ele>329</ele>
        <time>2020-02-08T19:08:47Z</time>
      </trkpt>
      <trkpt lat="45.75017" lon="3.23424">
        <ele>329</ele>
        <time>2020-02-08T19:08:50Z</time>
      </trkpt>
      <trkpt lat="45.74922" lon="3.23286">
        <ele>324</ele>
        <time>2020-02-08T19:09:21Z</time>
      </trkpt>
      <trkpt lat="45.74883" lon="3.23273">
        <ele>324</ele>
        <time>2020-02-08T19:09:31Z</time>
      </trkpt>
      <trkpt lat="45.74851" lon="3.23152">
        <ele>322</ele>
        <time>2020-02-08T19:09:52Z</time>
      </trkpt>
      <trkpt lat="45.74831" lon="3.22996">
        <ele>320</ele>
        <time>2020-02-08T19:10:17Z</time>
      </trkpt>
      <trkpt lat="45.74978" lon="3.22998">
        <ele>318</ele>
        <time>2020-02-08T19:10:52Z</time>
      </trkpt>
      <trkpt lat="45.75049" lon="3.23004">
        <ele>317</ele>
        <time>2020-02-08T19:11:08Z</time>
      </trkpt>
      <trkpt lat="45.75087" lon="3.23008">
        <ele>316</ele>
        <time>2020-02-08T19:11:17Z</time>
      </trkpt>
      <trkpt lat="45.75108" lon="3.23014">
        <ele>316</ele>
        <time>2020-02-08T19:11:22Z</time>
      </trkpt>
      <trkpt lat="45.75121" lon="3.23024">
        <ele>316</ele>
        <time>2020-02-08T19:11:26Z</time>
      </trkpt>
      <trkpt lat="45.75129" lon="3.23025">
        <ele>316</ele>
        <time>2020-02-08T19:11:28Z</time>
      </trkpt>
      <trkpt lat="45.75143" lon="3.23024">
        <ele>316</ele>
        <time>2020-02-08T19:11:31Z</time>
      </trkpt>
      <trkpt lat="45.75165" lon="3.23014">
        <ele>315</ele>
        <time>2020-02-08T19:11:36Z</time>
      </trkpt>
      <trkpt lat="45.75182" lon="3.23012">
        <ele>315</ele>
        <time>2020-02-08T19:11:40Z</time>
      </trkpt>
      <trkpt lat="45.75238" lon="3.23021">
        <ele>316</ele>
        <time>2020-02-08T19:11:53Z</time>
      </trkpt>
      <trkpt lat="45.75291" lon="3.23026">
        <ele>316</ele>
        <time>2020-02-08T19:12:06Z</time>
      </trkpt>
      <trkpt lat="45.75316" lon="3.23025">
        <ele>316</ele>
        <time>2020-02-08T19:12:12Z</time>
      </trkpt>
      <trkpt lat="45.75331" lon="3.23019">
        <ele>316</ele>
        <time>2020-02-08T19:12:15Z</time>
      </trkpt>
      <trkpt lat="45.75354" lon="3.22998">
        <ele>316</ele>
        <time>2020-02-08T19:12:22Z</time>
      </trkpt>
      <trkpt lat="45.75419" lon="3.22888">
        <ele>316</ele>
        <time>2020-02-08T19:12:45Z</time>
      </trkpt>
      <trkpt lat="45.75532" lon="3.22685">
        <ele>317</ele>
        <time>2020-02-08T19:13:27Z</time>
      </trkpt>
      <trkpt lat="45.75637" lon="3.22629">
        <ele>316</ele>
        <time>2020-02-08T19:13:54Z</time>
      </trkpt>
      <trkpt lat="45.75667" lon="3.22743">
        <ele>315</ele>
        <time>2020-02-08T19:14:14Z</time>
      </trkpt>
      <trkpt lat="45.75653" lon="3.22796">
        <ele>317</ele>
        <time>2020-02-08T19:14:23Z</time>
      </trkpt>
      <trkpt lat="45.75662" lon="3.22843">
        <ele>318</ele>
        <time>2020-02-08T19:14:31Z</time>
      </trkpt>
      <trkpt lat="45.7568" lon="3.22849">
        <ele>318</ele>
        <time>2020-02-08T19:14:35Z</time>
      </trkpt>
      <trkpt lat="45.75721" lon="3.2287">
        <ele>317</ele>
        <time>2020-02-08T19:14:45Z</time>
      </trkpt>
      <trkpt lat="45.75738" lon="3.22897">
        <ele>316</ele>
        <time>2020-02-08T19:14:51Z</time>
      </trkpt>
      <trkpt lat="45.75741" lon="3.22907">
        <ele>316</ele>
        <time>2020-02-08T19:14:53Z</time>
      </trkpt>
      <trkpt lat="45.75742" lon="3.22914">
        <ele>317</ele>
        <time>2020-02-08T19:14:54Z</time>
      </trkpt>
      <trkpt lat="45.75732" lon="3.22933">
        <ele>319</ele>
        <time>2020-02-08T19:14:58Z</time>
      </trkpt>
      <trkpt lat="45.75728" lon="3.22938">
        <ele>319</ele>
        <time>2020-02-08T19:14:59Z</time>
      </trkpt>
      <trkpt lat="45.7572" lon="3.2294">
        <ele>320</ele>
        <time>2020-02-08T19:15:01Z</time>
      </trkpt>
      <trkpt lat="45.75711" lon="3.22947">
        <ele>321</ele>
        <time>2020-02-08T19:15:03Z</time>
      </trkpt>
      <trkpt lat="45.75709" lon="3.22951">
        <ele>322</ele>
        <time>2020-02-08T19:15:04Z</time>
      </trkpt>
      <trkpt lat="45.75716" lon="3.22965">
        <ele>323</ele>
        <time>2020-02-08T19:15:07Z</time>
      </trkpt>
      <trkpt lat="45.75729" lon="3.22981">
        <ele>323</ele>
        <time>2020-02-08T19:15:11Z</time>
      </trkpt>
      <trkpt lat="45.75866" lon="3.23121">
        <ele>324</ele>
        <time>2020-02-08T19:15:50Z</time>
      </trkpt>
      <trkpt lat="45.76089" lon="3.23304">
        <ele>325</ele>
        <time>2020-02-08T19:16:50Z</time>
      </trkpt>
      <trkpt lat="45.76124" lon="3.23323">
        <ele>325</ele>
        <time>2020-02-08T19:16:59Z</time>
      </trkpt>
      <trkpt lat="45.76256" lon="3.23386">
        <ele>324</ele>
        <time>2020-02-08T19:17:32Z</time>
      </trkpt>
      <trkpt lat="45.76296" lon="3.23389">
        <ele>322</ele>
        <time>2020-02-08T19:17:41Z</time>
      </trkpt>
      <trkpt lat="45.7634" lon="3.23378">
        <ele>319</ele>
        <time>2020-02-08T19:17:51Z</time>
      </trkpt>
      <trkpt lat="45.76376" lon="3.23377">
        <ele>318</ele>
        <time>2020-02-08T19:18:00Z</time>
      </trkpt>
      <trkpt lat="45.76394" lon="3.23379">
        <ele>317</ele>
        <time>2020-02-08T19:18:04Z</time>
      </trkpt>
      <trkpt lat="45.76433" lon="3.23394">
        <ele>317</ele>
        <time>2020-02-08T19:18:13Z</time>
      </trkpt>
      <trkpt lat="45.76515" lon="3.23434">
        <ele>319</ele>
        <time>2020-02-08T19:18:34Z</time>
      </trkpt>
      <trkpt lat="45.76528" lon="3.23405">
        <ele>318</ele>
        <time>2020-02-08T19:18:39Z</time>
      </trkpt>
      <trkpt lat="45.76535" lon="3.23301">
        <ele>317</ele>
        <time>2020-02-08T19:18:56Z</time>
      </trkpt>
      <trkpt lat="45.7653" lon="3.23255">
        <ele>316</ele>
        <time>2020-02-08T19:19:04Z</time>
      </trkpt>
      <trkpt lat="45.76536" lon="3.23232">
        <ele>316</ele>
        <time>2020-02-08T19:19:08Z</time>
      </trkpt>
      <trkpt lat="45.76567" lon="3.23188">
        <ele>315</ele>
        <time>2020-02-08T19:19:18Z</time>
      </trkpt>
      <trkpt lat="45.76581" lon="3.23185">
        <ele>315</ele>
        <time>2020-02-08T19:19:21Z</time>
      </trkpt>
      <trkpt lat="45.76594" lon="3.23186">
        <ele>316</ele>
        <time>2020-02-08T19:19:24Z</time>
      </trkpt>
      <trkpt lat="45.76598" lon="3.23183">
        <ele>316</ele>
        <time>2020-02-08T19:19:25Z</time>
      </trkpt>
      <trkpt lat="45.76604" lon="3.23159">
        <ele>315</ele>
        <time>2020-02-08T19:19:30Z</time>
      </trkpt>
      <trkpt lat="45.76613" lon="3.2315">
        <ele>315</ele>
        <time>2020-02-08T19:19:32Z</time>
      </trkpt>
      <trkpt lat="45.76624" lon="3.23145">
        <ele>315</ele>
        <time>2020-02-08T19:19:35Z</time>
      </trkpt>
      <trkpt lat="45.76636" lon="3.23132">
        <ele>315</ele>
        <time>2020-02-08T19:19:38Z</time>
      </trkpt>
      <trkpt lat="45.76647" lon="3.23128">
        <ele>315</ele>
        <time>2020-02-08T19:19:41Z</time>
      </trkpt>
      <trkpt lat="45.76672" lon="3.23133">
        <ele>315</ele>
        <time>2020-02-08T19:19:47Z</time>
      </trkpt>
      <trkpt lat="45.76714" lon="3.23125">
        <ele>316</ele>
        <time>2020-02-08T19:19:57Z</time>
      </trkpt>
      <trkpt lat="45.76693" lon="3.23101">
        <ele>315</ele>
        <time>2020-02-08T19:20:03Z</time>
      </trkpt>
      <trkpt lat="45.76687" lon="3.23102">
        <ele>315</ele>
        <time>2020-02-08T19:20:04Z</time>
      </trkpt>
      <trkpt lat="45.76673" lon="3.23097">
        <ele>315</ele>
        <time>2020-02-08T19:20:08Z</time>
      </trkpt>
      <trkpt lat="45.7667" lon="3.23091">
        <ele>314</ele>
        <time>2020-02-08T19:20:09Z</time>
      </trkpt>
      <trkpt lat="45.76669" lon="3.23073">
        <ele>314</ele>
        <time>2020-02-08T19:20:12Z</time>
      </trkpt>
      <trkpt lat="45.76703" lon="3.23029">
        <ele>315</ele>
        <time>2020-02-08T19:20:23Z</time>
      </trkpt>
      <trkpt lat="45.76716" lon="3.23005">
        <ele>315</ele>
        <time>2020-02-08T19:20:28Z</time>
      </trkpt>
      <trkpt lat="45.76755" lon="3.23005">
        <ele>316</ele>
        <time>2020-02-08T19:20:37Z</time>
      </trkpt>
      <trkpt lat="45.76801" lon="3.2301">
        <ele>316</ele>
        <time>2020-02-08T19:20:48Z</time>
      </trkpt>
      <trkpt lat="45.76831" lon="3.23038">
        <ele>315</ele>
        <time>2020-02-08T19:20:56Z</time>
      </trkpt>
      <trkpt lat="45.76856" lon="3.23035">
        <ele>315</ele>
        <time>2020-02-08T19:21:02Z</time>
      </trkpt>
      <trkpt lat="45.76886" lon="3.2304">
        <ele>316</ele>
        <time>2020-02-08T19:21:09Z</time>
      </trkpt>
      <trkpt lat="45.76922" lon="3.23032">
        <ele>316</ele>
        <time>2020-02-08T19:21:17Z</time>
      </trkpt>
      <trkpt lat="45.76973" lon="3.2301">
        <ele>315</ele>
        <time>2020-02-08T19:21:30Z</time>
      </trkpt>
      <trkpt lat="45.76979" lon="3.23014">
        <ele>315</ele>
        <time>2020-02-08T19:21:31Z</time>
      </trkpt>
      <trkpt lat="45.76988" lon="3.23028">
        <ele>315</ele>
        <time>2020-02-08T19:21:34Z</time>
      </trkpt>
      <trkpt lat="45.76997" lon="3.23033">
        <ele>314</ele>
        <time>2020-02-08T19:21:37Z</time>
      </trkpt>
      <trkpt lat="45.77014" lon="3.23048">
        <ele>315</ele>
        <time>2020-02-08T19:21:41Z</time>
      </trkpt>
      <trkpt lat="45.77023" lon="3.2305">
        <ele>315</ele>
        <time>2020-02-08T19:21:43Z</time>
      </trkpt>
      <trkpt lat="45.77038" lon="3.2304">
        <ele>314</ele>
        <time>2020-02-08T19:21:47Z</time>
      </trkpt>
      <trkpt lat="45.77052" lon="3.23041">
        <ele>314</ele>
        <time>2020-02-08T19:21:51Z</time>
      </trkpt>
      <trkpt lat="45.77076" lon="3.23023">
        <ele>314</ele>
        <time>2020-02-08T19:21:57Z</time>
      </trkpt>
      <trkpt lat="45.77126" lon="3.2301">
        <ele>315</ele>
        <time>2020-02-08T19:22:09Z</time>
      </trkpt>
      <trkpt lat="45.77133" lon="3.23012">
        <ele>315</ele>
        <time>2020-02-08T19:22:10Z</time>
      </trkpt>
      <trkpt lat="45.77167" lon="3.23043">
        <ele>316</ele>
        <time>2020-02-08T19:22:20Z</time>
      </trkpt>
      <trkpt lat="45.77171" lon="3.23063">
        <ele>316</ele>
        <time>2020-02-08T19:22:23Z</time>
      </trkpt>
      <trkpt lat="45.77163" lon="3.23117">
        <ele>316</ele>
        <time>2020-02-08T19:22:32Z</time>
      </trkpt>
      <trkpt lat="45.77144" lon="3.23185">
        <ele>315</ele>
        <time>2020-02-08T19:22:44Z</time>
      </trkpt>
      <trkpt lat="45.77138" lon="3.23223">
        <ele>315</ele>
        <time>2020-02-08T19:22:51Z</time>
      </trkpt>
      <trkpt lat="45.77115" lon="3.23318">
        <ele>313</ele>
        <time>2020-02-08T19:23:07Z</time>
      </trkpt>
      <trkpt lat="45.7711" lon="3.23353">
        <ele>313</ele>
        <time>2020-02-08T19:23:13Z</time>
      </trkpt>
      <trkpt lat="45.77102" lon="3.23629">
        <ele>311</ele>
        <time>2020-02-08T19:23:58Z</time>
      </trkpt>
      <trkpt lat="45.77114" lon="3.23692">
        <ele>314</ele>
        <time>2020-02-08T19:24:08Z</time>
      </trkpt>
      <trkpt lat="45.77132" lon="3.2374">
        <ele>316</ele>
        <time>2020-02-08T19:24:17Z</time>
      </trkpt>
      <trkpt lat="45.77132" lon="3.23746">
        <ele>316</ele>
        <time>2020-02-08T19:24:18Z</time>
      </trkpt>
      <trkpt lat="45.77193" lon="3.23762">
        <ele>315</ele>
        <time>2020-02-08T19:24:33Z</time>
      </trkpt>
      <trkpt lat="45.77203" lon="3.2376">
        <ele>315</ele>
        <time>2020-02-08T19:24:35Z</time>
      </trkpt>
      <trkpt lat="45.77217" lon="3.23761">
        <ele>315</ele>
        <time>2020-02-08T19:24:38Z</time>
      </trkpt>
      <trkpt lat="45.77256" lon="3.2378">
        <ele>315</ele>
        <time>2020-02-08T19:24:48Z</time>
      </trkpt>
      <trkpt lat="45.77264" lon="3.23779">
        <ele>315</ele>
        <time>2020-02-08T19:24:50Z</time>
      </trkpt>
      <trkpt lat="45.77276" lon="3.23782">
        <ele>315</ele>
        <time>2020-02-08T19:24:53Z</time>
      </trkpt>
      <trkpt lat="45.77253" lon="3.23857">
        <ele>319</ele>
        <time>2020-02-08T19:25:06Z</time>
      </trkpt>
      <trkpt lat="45.77251" lon="3.23875">
        <ele>320</ele>
        <time>2020-02-08T19:25:09Z</time>
      </trkpt>
      <trkpt lat="45.77259" lon="3.23878">
        <ele>320</ele>
        <time>2020-02-08T19:25:11Z</time>
      </trkpt>
      <trkpt lat="45.77404" lon="3.23446">
        <ele>318</ele>
        <time>2020-02-08T19:26:29Z</time>
      </trkpt>
      <trkpt lat="45.77413" lon="3.23437">
        <ele>319</ele>
        <time>2020-02-08T19:26:32Z</time>
      </trkpt>
      <trkpt lat="45.77418" lon="3.23435">
        <ele>319</ele>
        <time>2020-02-08T19:26:33Z</time>
      </trkpt>
      <trkpt lat="45.77452" lon="3.23465">
        <ele>319</ele>
        <time>2020-02-08T19:26:42Z</time>
      </trkpt>
      <trkpt lat="45.77465" lon="3.23483">
        <ele>319</ele>
        <time>2020-02-08T19:26:46Z</time>
      </trkpt>
      <trkpt lat="45.7747" lon="3.23505">
        <ele>318</ele>
        <time>2020-02-08T19:26:50Z</time>
      </trkpt>
      <trkpt lat="45.7747" lon="3.23515">
        <ele>318</ele>
        <time>2020-02-08T19:26:52Z</time>
      </trkpt>
      <trkpt lat="45.77454" lon="3.23595">
        <ele>318</ele>
        <time>2020-02-08T19:27:05Z</time>
      </trkpt>
      <trkpt lat="45.77441" lon="3.23637">
        <ele>318</ele>
        <time>2020-02-08T19:27:13Z</time>
      </trkpt>
      <trkpt lat="45.77435" lon="3.23671">
        <ele>317</ele>
        <time>2020-02-08T19:27:18Z</time>
      </trkpt>
      <trkpt lat="45.77447" lon="3.23702">
        <ele>317</ele>
        <time>2020-02-08T19:27:24Z</time>
      </trkpt>
      <trkpt lat="45.77446" lon="3.23709">
        <ele>317</ele>
        <time>2020-02-08T19:27:25Z</time>
      </trkpt>
      <trkpt lat="45.77477" lon="3.23723">
        <ele>316</ele>
        <time>2020-02-08T19:27:33Z</time>
      </trkpt>
      <trkpt lat="45.77483" lon="3.23714">
        <ele>317</ele>
        <time>2020-02-08T19:27:35Z</time>
      </trkpt>
      <trkpt lat="45.7749" lon="3.23657">
        <ele>319</ele>
        <time>2020-02-08T19:27:44Z</time>
      </trkpt>
      <trkpt lat="45.7749" lon="3.23639">
        <ele>319</ele>
        <time>2020-02-08T19:27:47Z</time>
      </trkpt>
      <trkpt lat="45.77498" lon="3.23594">
        <ele>319</ele>
        <time>2020-02-08T19:27:55Z</time>
      </trkpt>
      <trkpt lat="45.77514" lon="3.23529">
        <ele>319</ele>
        <time>2020-02-08T19:28:06Z</time>
      </trkpt>
      <trkpt lat="45.77524" lon="3.23523">
        <ele>319</ele>
        <time>2020-02-08T19:28:09Z</time>
      </trkpt>
      <trkpt lat="45.77528" lon="3.23512">
        <ele>320</ele>
        <time>2020-02-08T19:28:11Z</time>
      </trkpt>
      <trkpt lat="45.77528" lon="3.23499">
        <ele>320</ele>
        <time>2020-02-08T19:28:13Z</time>
      </trkpt>
      <trkpt lat="45.77567" lon="3.23483">
        <ele>322</ele>
        <time>2020-02-08T19:28:22Z</time>
      </trkpt>
      <trkpt lat="45.77594" lon="3.23475">
        <ele>323</ele>
        <time>2020-02-08T19:28:29Z</time>
      </trkpt>
      <trkpt lat="45.77696" lon="3.23542">
        <ele>321</ele>
        <time>2020-02-08T19:28:55Z</time>
      </trkpt>
      <trkpt lat="45.77788" lon="3.23606">
        <ele>319</ele>
        <time>2020-02-08T19:29:19Z</time>
      </trkpt>
      <trkpt lat="45.77837" lon="3.23624">
        <ele>318</ele>
        <time>2020-02-08T19:29:31Z</time>
      </trkpt>
      <trkpt lat="45.77916" lon="3.23648">
        <ele>320</ele>
        <time>2020-02-08T19:29:50Z</time>
      </trkpt>
      <trkpt lat="45.77888" lon="3.23747">
        <ele>316</ele>
        <time>2020-02-08T19:30:07Z</time>
      </trkpt>
      <trkpt lat="45.77885" lon="3.2377">
        <ele>315</ele>
        <time>2020-02-08T19:30:11Z</time>
      </trkpt>
      <trkpt lat="45.77892" lon="3.23816">
        <ele>315</ele>
        <time>2020-02-08T19:30:18Z</time>
      </trkpt>
      <trkpt lat="45.77891" lon="3.23842">
        <ele>314</ele>
        <time>2020-02-08T19:30:23Z</time>
      </trkpt>
      <trkpt lat="45.77883" lon="3.23874">
        <ele>314</ele>
        <time>2020-02-08T19:30:28Z</time>
      </trkpt>
      <trkpt lat="45.77874" lon="3.23888">
        <ele>314</ele>
        <time>2020-02-08T19:30:31Z</time>
      </trkpt>
      <trkpt lat="45.77865" lon="3.23896">
        <ele>314</ele>
        <time>2020-02-08T19:30:34Z</time>
      </trkpt>
      <trkpt lat="45.779" lon="3.23913">
        <ele>315</ele>
        <time>2020-02-08T19:30:42Z</time>
      </trkpt>
      <trkpt lat="45.7796" lon="3.23948">
        <ele>318</ele>
        <time>2020-02-08T19:30:57Z</time>
      </trkpt>
      <trkpt lat="45.78069" lon="3.24002">
        <ele>320</ele>
        <time>2020-02-08T19:31:24Z</time>
      </trkpt>
      <trkpt lat="45.78173" lon="3.24057">
        <ele>321</ele>
        <time>2020-02-08T19:31:50Z</time>
      </trkpt>
      <trkpt lat="45.78184" lon="3.24057">
        <ele>321</ele>
        <time>2020-02-08T19:31:53Z</time>
      </trkpt>
      <trkpt lat="45.78186" lon="3.24055">
        <ele>321</ele>
        <time>2020-02-08T19:31:53Z</time>
      </trkpt>
      <trkpt lat="45.78191" lon="3.24063">
        <ele>321</ele>
        <time>2020-02-08T19:31:55Z</time>
      </trkpt>
      <trkpt lat="45.78246" lon="3.24083">
        <ele>321</ele>
        <time>2020-02-08T19:32:08Z</time>
      </trkpt>
      <trkpt lat="45.78283" lon="3.24092">
        <ele>321</ele>
        <time>2020-02-08T19:32:17Z</time>
      </trkpt>
      <trkpt lat="45.78471" lon="3.24151">
        <ele>321</ele>
        <time>2020-02-08T19:33:02Z</time>
      </trkpt>
      <trkpt lat="45.78475" lon="3.24154">
        <ele>321</ele>
        <time>2020-02-08T19:33:03Z</time>
      </trkpt>
      <trkpt lat="45.78494" lon="3.24148">
        <ele>320</ele>
        <time>2020-02-08T19:33:08Z</time>
      </trkpt>
      <trkpt lat="45.78561" lon="3.24134">
        <ele>320</ele>
        <time>2020-02-08T19:33:24Z</time>
      </trkpt>
      <trkpt lat="45.78571" lon="3.24134">
        <ele>320</ele>
        <time>2020-02-08T19:33:26Z</time>
      </trkpt>
      <trkpt lat="45.78593" lon="3.24145">
        <ele>319</ele>
        <time>2020-02-08T19:33:31Z</time>
      </trkpt>
      <trkpt lat="45.78627" lon="3.24169">
        <ele>319</ele>
        <time>2020-02-08T19:33:40Z</time>
      </trkpt>
      <trkpt lat="45.78747" lon="3.24209">
        <ele>317</ele>
        <time>2020-02-08T19:34:09Z</time>
      </trkpt>
      <trkpt lat="45.78798" lon="3.24223">
        <ele>316</ele>
        <time>2020-02-08T19:34:21Z</time>
      </trkpt>
      <trkpt lat="45.78868" lon="3.24228">
        <ele>316</ele>
        <time>2020-02-08T19:34:37Z</time>
      </trkpt>
      <trkpt lat="45.78962" lon="3.24228">
        <ele>316</ele>
        <time>2020-02-08T19:34:59Z</time>
      </trkpt>
      <trkpt lat="45.79027" lon="3.24237">
        <ele>316</ele>
        <time>2020-02-08T19:35:15Z</time>
      </trkpt>
      <trkpt lat="45.79168" lon="3.24265">
        <ele>314</ele>
        <time>2020-02-08T19:35:48Z</time>
      </trkpt>
      <trkpt lat="45.79231" lon="3.24292">
        <ele>313</ele>
        <time>2020-02-08T19:36:03Z</time>
      </trkpt>
      <trkpt lat="45.79273" lon="3.24297">
        <ele>314</ele>
        <time>2020-02-08T19:36:13Z</time>
      </trkpt>
      <trkpt lat="45.7928" lon="3.24294">
        <ele>314</ele>
        <time>2020-02-08T19:36:15Z</time>
      </trkpt>
      <trkpt lat="45.79299" lon="3.2436">
        <ele>313</ele>
        <time>2020-02-08T19:36:26Z</time>
      </trkpt>
      <trkpt lat="45.79313" lon="3.24395">
        <ele>314</ele>
        <time>2020-02-08T19:36:33Z</time>
      </trkpt>
      <trkpt lat="45.79326" lon="3.24423">
        <ele>314</ele>
        <time>2020-02-08T19:36:38Z</time>
      </trkpt>
      <trkpt lat="45.79343" lon="3.2445">
        <ele>313</ele>
        <time>2020-02-08T19:36:44Z</time>
      </trkpt>
      <trkpt lat="45.7935" lon="3.24454">
        <ele>313</ele>
        <time>2020-02-08T19:36:46Z</time>
      </trkpt>
      <trkpt lat="45.79379" lon="3.24489">
        <ele>313</ele>
        <time>2020-02-08T19:36:55Z</time>
      </trkpt>
      <trkpt lat="45.79447" lon="3.24556">
        <ele>316</ele>
        <time>2020-02-08T19:37:14Z</time>
      </trkpt>
      <trkpt lat="45.79496" lon="3.24609">
        <ele>317</ele>
        <time>2020-02-08T19:37:29Z</time>
      </trkpt>
      <trkpt lat="45.79557" lon="3.24705">
        <ele>320</ele>
        <time>2020-02-08T19:37:50Z</time>
      </trkpt>
      <trkpt lat="45.79564" lon="3.24698">
        <ele>322</ele>
        <time>2020-02-08T19:37:52Z</time>
      </trkpt>
      <trkpt lat="45.79572" lon="3.24698">
        <ele>324</ele>
        <time>2020-02-08T19:37:54Z</time>
      </trkpt>
      <trkpt lat="45.79627" lon="3.24746">
        <ele>334</ele>
        <time>2020-02-08T19:38:09Z</time>
      </trkpt>
      <trkpt lat="45.7965" lon="3.24773">
        <ele>340</ele>
        <time>2020-02-08T19:38:16Z</time>
      </trkpt>
      <trkpt lat="45.79665" lon="3.24814">
        <ele>341</ele>
        <time>2020-02-08T19:38:23Z</time>
      </trkpt>
      <trkpt lat="45.79673" lon="3.24759">
        <ele>349</ele>
        <time>2020-02-08T19:38:32Z</time>
      </trkpt>
      <trkpt lat="45.79692" lon="3.2475">
        <ele>351</ele>
        <time>2020-02-08T19:38:37Z</time>
      </trkpt>
      <trkpt lat="45.797" lon="3.24765">
        <ele>351</ele>
        <time>2020-02-08T19:38:40Z</time>
      </trkpt>
      <trkpt lat="45.79713" lon="3.24773">
        <ele>352</ele>
        <time>2020-02-08T19:38:43Z</time>
      </trkpt>
      <trkpt lat="45.79732" lon="3.24793">
        <ele>353</ele>
        <time>2020-02-08T19:38:49Z</time>
      </trkpt>
      <trkpt lat="45.79741" lon="3.24809">
        <ele>354</ele>
        <time>2020-02-08T19:38:52Z</time>
      </trkpt>
      <trkpt lat="45.79747" lon="3.24836">
        <ele>354</ele>
        <time>2020-02-08T19:38:57Z</time>
      </trkpt>
      <trkpt lat="45.79735" lon="3.24839">
        <ele>352</ele>
        <time>2020-02-08T19:39:00Z</time>
      </trkpt>
      <trkpt lat="45.79697" lon="3.2486">
        <ele>343</ele>
        <time>2020-02-08T19:39:09Z</time>
      </trkpt>
      <trkpt lat="45.79696" lon="3.24857">
        <ele>343</ele>
        <time>2020-02-08T19:39:10Z</time>
      </trkpt>
    </trkseg>
  </trk>
</gpx>